createdAt,value
2023-02-07T00:04:17.391Z,26.13
2023-02-07T00:09:22.183Z,37.45
2023-02-07T00:14:25.841Z,32.95
2023-02-07T00:19:29.485Z,31.40
2023-02-07T00:24:34.270Z,31.90
2023-02-07T00:29:37.724Z,24.70
2023-02-07T00:34:41.239Z,29.27
2023-02-07T00:39:45.973Z,30.60
2023-02-07T00:44:50.160Z,30.38
2023-02-07T00:49:53.885Z,29.27
2023-02-07T00:54:58.504Z,28.17
2023-02-07T01:00:01.766Z,24.17
2023-02-07T01:05:05.289Z,29.77
2023-02-07T01:10:11.590Z,26.58
2023-02-07T01:15:16.795Z,34.00
2023-02-07T01:20:20.864Z,25.63
2023-02-07T01:25:26.849Z,23.23
2023-02-07T01:30:30.653Z,30.88
2023-02-07T01:35:34.216Z,21.33
2023-02-07T01:40:39.623Z,24.60
2023-02-07T01:45:43.540Z,24.60
2023-02-07T01:50:50.216Z,31.52
2023-02-07T01:55:58.652Z,27.55
2023-02-07T02:01:05.773Z,29.55
2023-02-07T02:06:09.957Z,30.50
2023-02-07T02:11:45.820Z,27.27
2023-02-07T02:16:59.357Z,32.45
2023-02-07T02:22:53.943Z,28.83
2023-02-07T02:28:24.015Z,24.23
2023-02-07T02:33:41.340Z,26.65
2023-02-07T02:38:54.446Z,27.48
2023-02-07T02:44:02.841Z,26.77
2023-02-07T02:49:11.210Z,30.23
2023-02-07T02:54:33.400Z,24.08
2023-02-07T03:00:12.606Z,26.60
2023-02-07T03:05:32.079Z,29.10
2023-02-07T03:10:44.373Z,28.00
2023-02-07T03:15:57.163Z,24.27
2023-02-07T03:21:08.516Z,24.88
2023-02-07T03:26:12.097Z,23.10
2023-02-07T03:31:18.951Z,27.75
2023-02-07T03:36:30.164Z,29.83
2023-02-07T03:41:39.726Z,25.27
2023-02-07T03:46:43.794Z,29.13
2023-02-07T03:51:50.224Z,32.28
2023-02-07T03:56:53.515Z,26.90
2023-02-07T04:01:56.906Z,26.83
2023-02-07T04:07:02.000Z,24.02
2023-02-07T04:12:05.836Z,28.02
2023-02-07T04:17:09.182Z,29.92
2023-02-07T04:22:13.956Z,22.40
2023-02-07T04:27:17.792Z,32.55
2023-02-07T04:32:21.111Z,27.83
2023-02-07T04:37:25.843Z,34.10
2023-02-07T04:42:29.257Z,38.33
2023-02-07T04:47:32.669Z,46.95
2023-02-07T04:52:38.107Z,45.90
2023-02-07T05:02:45.408Z,41.97
2023-02-07T05:07:50.619Z,41.78
2023-02-07T05:12:54.235Z,30.70
2023-02-07T05:17:58.509Z,35.38
2023-02-07T05:23:04.541Z,46.13
2023-02-07T05:28:08.236Z,59.15
2023-02-07T05:33:12.322Z,58.33
2023-02-07T05:38:19.088Z,46.22
2023-02-07T05:43:22.763Z,49.50
2023-02-07T05:48:26.166Z,46.72
2023-02-07T05:53:31.253Z,38.55
2023-02-07T05:58:34.917Z,46.80
2023-02-07T06:03:38.631Z,47.28
2023-02-07T06:08:43.512Z,36.15
2023-02-07T06:13:47.226Z,42.78
2023-02-07T06:18:50.918Z,33.60
2023-02-07T06:23:56.089Z,40.70
2023-02-07T06:28:59.451Z,40.22
2023-02-07T06:34:03.093Z,40.05
2023-02-07T06:39:07.846Z,36.17
2023-02-07T06:44:11.391Z,49.20
2023-02-07T06:49:14.775Z,46.60
2023-02-07T06:54:19.788Z,38.97
2023-02-07T06:59:23.092Z,49.85
2023-02-07T07:04:26.338Z,40.58
2023-02-07T07:09:30.944Z,42.47
2023-02-07T07:14:34.259Z,43.70
2023-02-07T07:19:37.955Z,44.83
2023-02-07T07:24:42.950Z,40.40
2023-02-07T07:29:47.158Z,48.97
2023-02-07T07:34:51.152Z,45.73
2023-02-07T07:39:55.751Z,51.83
2023-02-07T07:44:59.027Z,57.80
2023-02-07T07:50:02.464Z,51.85
2023-02-07T07:55:08.128Z,56.40
2023-02-07T08:00:13.283Z,55.13
2023-02-07T08:05:16.820Z,58.53
2023-02-07T08:10:21.698Z,54.72
2023-02-07T08:15:25.244Z,56.47
2023-02-07T08:20:29.202Z,47.85
2023-02-07T08:25:34.352Z,56.90
2023-02-07T08:30:38.208Z,50.85
2023-02-07T08:35:42.192Z,55.42
2023-02-07T08:40:47.890Z,49.72
2023-02-07T08:45:51.600Z,54.63
2023-02-07T08:50:56.094Z,59.45
2023-02-07T08:56:02.219Z,55.15
2023-02-07T09:01:07.891Z,55.67
2023-02-07T09:06:11.952Z,50.90
2023-02-07T09:11:16.843Z,63.28
2023-02-07T09:16:20.273Z,51.58
2023-02-07T09:21:24.031Z,54.30
2023-02-07T09:26:31.203Z,61.05
2023-02-07T09:31:35.714Z,53.25
2023-02-07T09:36:39.140Z,54.37
2023-02-07T09:41:53.712Z,70.55
2023-02-07T09:47:03.409Z,59.78
2023-02-07T09:52:12.586Z,62.85
2023-02-07T09:57:27.063Z,54.42
2023-02-07T10:02:35.481Z,54.10
2023-02-07T10:07:39.142Z,50.58
2023-02-07T10:13:09.584Z,52.72
2023-02-07T10:18:39.493Z,63.92
2023-02-07T10:24:17.664Z,60.40
2023-02-07T10:29:40.063Z,60.35
2023-02-07T10:34:47.855Z,60.80
2023-02-07T10:39:59.545Z,54.35
2023-02-07T10:45:05.401Z,55.03
2023-02-07T10:50:13.929Z,57.85
2023-02-07T10:55:22.420Z,55.38
2023-02-07T11:00:29.548Z,55.33
2023-02-07T11:05:38.536Z,59.90
2023-02-07T11:10:44.119Z,53.80
2023-02-07T11:15:53.336Z,61.95
2023-02-07T11:20:57.537Z,51.58
2023-02-07T11:26:03.636Z,51.60
2023-02-07T11:31:14.602Z,55.90
2023-02-07T11:36:24.541Z,56.83
2023-02-07T11:41:29.920Z,56.78
2023-02-07T11:46:39.092Z,51.35
2023-02-07T11:51:42.522Z,61.00
2023-02-07T11:56:50.163Z,58.15
2023-02-07T12:01:57.154Z,53.17
2023-02-07T12:07:05.852Z,50.95
2023-02-07T12:12:20.501Z,57.80
2023-02-07T12:17:33.678Z,58.38
2023-02-07T12:22:44.552Z,62.42
2023-02-07T12:27:57.871Z,57.78
2023-02-07T12:33:11.927Z,63.85
2023-02-07T12:38:22.972Z,55.42
2023-02-07T12:43:29.131Z,65.57
2023-02-07T12:48:56.644Z,58.40
2023-02-07T12:54:12.700Z,60.22
2023-02-07T12:59:24.713Z,57.33
2023-02-07T13:04:55.841Z,57.03
2023-02-07T13:10:08.499Z,59.88
2023-02-07T13:15:22.933Z,59.15
2023-02-07T13:20:48.750Z,44.15
2023-02-07T13:25:58.581Z,64.13
2023-02-07T13:31:03.085Z,56.35
2023-02-07T13:36:14.697Z,56.10
2023-02-07T13:41:30.313Z,54.38
2023-02-07T13:47:19.333Z,61.25
2023-02-07T13:52:32.610Z,57.28
2023-02-07T13:58:02.228Z,65.53
2023-02-07T14:03:08.966Z,60.75
2023-02-07T14:08:25.485Z,55.33
2023-02-07T14:13:34.808Z,70.78
2023-02-07T14:18:52.169Z,60.38
2023-02-07T14:24:19.633Z,68.45
2023-02-07T14:30:03.328Z,75.28
2023-02-07T14:35:30.269Z,62.28
2023-02-07T14:41:01.878Z,69.43
2023-02-07T14:46:17.137Z,63.97
2023-02-07T14:51:24.958Z,63.03
2023-02-07T14:56:47.917Z,61.72
2023-02-07T15:01:51.198Z,63.03
2023-02-07T15:06:55.054Z,64.07
2023-02-07T15:12:18.867Z,65.95
2023-02-07T15:17:43.511Z,71.55
2023-02-07T15:22:50.090Z,72.53
2023-02-07T15:28:09.251Z,74.68
2023-02-07T15:33:20.556Z,72.22
2023-02-07T15:38:25.520Z,61.53
2023-02-07T15:43:33.031Z,75.57
2023-02-07T15:48:49.122Z,78.25
2023-02-07T15:53:56.822Z,60.00
2023-02-07T15:59:10.672Z,60.05
2023-02-07T16:04:14.387Z,77.30
2023-02-07T16:09:37.217Z,67.55
2023-02-07T16:14:43.768Z,61.28
2023-02-07T16:19:47.623Z,66.00
2023-02-07T16:24:52.916Z,56.75
2023-02-07T16:29:58.491Z,70.82
2023-02-07T16:35:02.177Z,57.88
2023-02-07T16:40:06.451Z,70.50
2023-02-07T16:45:18.766Z,63.17
2023-02-07T16:50:23.902Z,62.28
2023-02-07T16:55:29.410Z,67.55
2023-02-07T17:00:34.754Z,59.95
2023-02-07T17:10:42.828Z,67.55
2023-02-07T17:15:47.578Z,68.47
2023-02-07T17:20:54.366Z,62.00
2023-02-07T17:25:58.956Z,56.75
2023-02-07T17:31:04.011Z,59.42
2023-02-07T17:36:08.672Z,59.17
2023-02-07T17:41:13.094Z,81.27
2023-02-07T17:46:20.309Z,68.85
2023-02-07T17:51:26.985Z,65.57
2023-02-07T17:56:33.062Z,68.53
2023-02-07T18:01:37.688Z,67.03
2023-02-07T18:06:41.486Z,65.47
2023-02-07T18:11:45.442Z,65.78
2023-02-07T18:16:50.198Z,71.15
2023-02-07T18:21:53.607Z,67.97
2023-02-07T18:26:57.016Z,75.03
2023-02-07T18:32:01.792Z,79.07
2023-02-07T18:37:05.100Z,62.58
2023-02-07T18:42:08.742Z,78.60
2023-02-07T18:47:14.020Z,61.55
2023-02-07T18:52:17.720Z,66.75
2023-02-07T18:57:20.997Z,63.40
2023-02-07T19:02:26.143Z,71.57
2023-02-07T19:07:29.483Z,64.13
2023-02-07T19:12:33.189Z,63.60
2023-02-07T19:17:38.334Z,62.03
2023-02-07T19:22:42.004Z,63.00
2023-02-07T19:27:45.576Z,72.00
2023-02-07T19:32:53.459Z,66.05
2023-02-07T19:37:56.732Z,59.60
2023-02-07T19:43:00.405Z,68.95
2023-02-07T19:48:05.586Z,71.15
2023-02-07T19:53:09.278Z,86.97
2023-02-07T19:58:12.934Z,73.00
2023-02-07T20:03:19.135Z,70.47
2023-02-07T20:08:22.813Z,76.03
2023-02-07T20:13:26.122Z,80.78
2023-02-07T20:18:31.246Z,79.38
2023-02-07T20:23:35.343Z,100.53
2023-02-07T20:28:39.311Z,82.43
2023-02-07T20:33:44.593Z,84.03
2023-02-07T20:43:51.501Z,85.38
2023-02-07T20:49:01.081Z,106.32
2023-02-07T20:54:06.849Z,92.10
2023-02-07T20:59:14.555Z,97.13
2023-02-07T21:04:19.339Z,90.25
2023-02-07T21:09:22.988Z,86.22
2023-02-07T21:14:29.485Z,74.38
2023-02-07T21:19:35.178Z,87.28
2023-02-07T21:24:38.558Z,78.03
2023-02-07T21:29:42.372Z,89.43
2023-02-07T21:34:49.177Z,83.40
2023-02-07T21:39:53.120Z,83.10
2023-02-07T21:44:56.974Z,90.38
2023-02-07T21:50:02.603Z,83.75
2023-02-07T21:55:06.419Z,77.35
2023-02-07T22:00:12.235Z,83.45
2023-02-07T22:05:17.031Z,88.75
2023-02-07T22:10:20.358Z,80.40
2023-02-07T22:15:23.654Z,78.07
2023-02-07T22:20:28.679Z,79.32
2023-02-07T22:25:32.094Z,79.65
2023-02-07T22:30:37.364Z,73.47
2023-02-07T22:40:47.331Z,72.72
2023-02-07T22:45:51.123Z,67.28
2023-02-07T22:50:56.270Z,68.88
2023-02-07T22:56:02.530Z,79.88
2023-02-07T23:01:06.758Z,67.43
2023-02-07T23:06:11.477Z,68.95
2023-02-07T23:11:17.250Z,59.65
2023-02-07T23:16:22.920Z,65.30
2023-02-07T23:21:27.994Z,63.10
2023-02-07T23:26:31.328Z,62.25
2023-02-07T23:31:35.433Z,57.70
2023-02-07T23:36:40.730Z,61.70
2023-02-07T23:46:47.208Z,78.00
2023-02-07T23:51:51.878Z,71.07
2023-02-07T23:56:55.173Z,59.90
